Terminal Aerodrome Forecast
Issued by NWS Tallahassee, FL

Home | Current Version | Previous Version | Text Only | Print | Product List | Glossary On
Versions: 1 2 3 4 5 6 7 8 9 10 11 12 13 14 15 16 17 18
709
FTUS42 KTAE 271720
TAFTLH
TAF
KTLH 271720Z 2718/2818 18007KT P6SM BKN050
     FM280600 VRB02KT 2SM BR SCT004
     FM280800 00000KT 1/2SM FG BKN001
      TEMPO 2809/2812 1/4SM FG
     FM281300 VRB02KT 3SM BR SCT001
     FM281400 21005KT P6SM BKN250=

USA.gov is the U.S. government's official web portal to all federal, state and local government web resources and services.